Latest Weather Observations for Lord Howe Island Windy Point

IDN60801

Issued at 10:12 am EDT Friday 9 December 2022 (issued every 10 minutes, with the page automatically refreshed every 10 minutes)

About weather observations | Map of weather stations | Latest weather observations for NSW | Other Formats
Station Details ID: 200715 Name: LORD HOWE ISLAND WINDY POINT Lat: -31.54 Lon: 159.07 Height: 4.0 m
Data from the previous 72 hours. | See also: Recent months at Lord Howe Island Windy Point
Date/Time
EDT
Temp
°C
App
Temp
°C
Dew
Point
°C
Rel
Hum
%
Delta-T
°C
Wind Press
QNH
hPa
Press
MSL
hPa
Rain since
9am
mm
Dir  Spd
km/h
Gust
km/h
Spd
kts
Gust
kts
09/10:00am - - - - - SW 20 24 11 13 - - -
09/09:30am - - - - - SW 19 20 10 11 - - -
09/09:00am - - - - - WSW 19 24 10 13 - - -
09/08:30am - - - - - SW 19 22 10 12 - - -
09/08:00am - - - - - SW 20 26 11 14 - - -
09/07:30am - - - - - SSW 19 22 10 12 - - -
09/07:00am - - - - - SW 22 28 12 15 - - -
09/06:30am - - - - - SW 24 30 13 16 - - -
09/06:00am - - - - - SW 26 30 14 16 - - -
09/05:30am - - - - - SSW 32 35 17 19 - - -
09/05:00am - - - - - SSW 28 32 15 17 - - -
09/04:30am - - - - - SSW 28 33 15 18 - - -
09/04:00am - - - - - SSW 26 30 14 16 - - -
09/03:30am - - - - - SSW 26 30 14 16 - - -
09/03:00am - - - - - SSW 26 30 14 16 - - -
09/02:30am - - - - - SW 24 30 13 16 - - -
09/02:00am - - - - - SSW 30 35 16 19 - - -
09/01:30am - - - - - SSW 24 30 13 16 - - -
09/01:00am - - - - - SSW 26 32 14 17 - - -
09/12:30am - - - - - SSW 32 39 17 21 - - -
09/12:00am - - - - - S 35 43 19 23 - - -
 
Date/Time
EDT
Temp
°C
App
Temp
°C
Dew
Point
°C
Rel
Hum
%
Delta-T
°C
Wind Press
QNH
hPa
Press
MSL
hPa
Rain since
9am
mm
Dir  Spd
km/h
Gust
km/h
Spd
kts
Gust
kts
08/11:30pm - - - - - SSW 35 43 19 23 - - -
08/11:00pm - - - - - SSW 39 48 21 26 - - -
08/10:30pm - - - - - SSW 35 41 19 22 - - -
08/10:00pm - - - - - SSW 28 37 15 20 - - -
08/09:30pm - - - - - SSW 30 37 16 20 - - -
08/09:00pm - - - - - SSW 28 32 15 17 - - -
08/08:30pm - - - - - SSW 24 30 13 16 - - -
08/08:00pm - - - - - SW 22 32 12 17 - - -
08/07:30pm - - - - - SW 20 24 11 13 - - -
08/07:00pm - - - - - WSW 24 28 13 15 - - -
08/06:30pm - - - - - WSW 26 32 14 17 - - -
08/06:00pm - - - - - WSW 28 32 15 17 - - -
08/05:30pm - - - - - WSW 28 32 15 17 - - -
08/05:00pm - - - - - WSW 26 30 14 16 - - -
08/04:30pm - - - - - WSW 22 24 12 13 - - -
08/04:00pm - - - - - WSW 24 26 13 14 - - -
08/03:30pm - - - - - WSW 19 24 10 13 - - -
08/03:00pm - - - - - SW 13 17 7 9 - - -
08/02:30pm - - - - - W 17 20 9 11 - - -
08/02:00pm - - - - - W 17 22 9 12 - - -
08/01:30pm - - - - - W 15 22 8 12 - - -
08/01:00pm - - - - - WNW 13 17 7 9 - - -
08/12:30pm - - - - - WSW 13 17 7 9 - - -
08/12:00pm - - - - - WNW 13 19 7 10 - - -
08/11:30am - - - - - NW 19 20 10 11 - - -
08/11:00am - - - - - NNW 7 11 4 6 - - -
08/10:30am - - - - - NNW 6 11 3 6 - - -
08/10:00am - - - - - NW 11 24 6 13 - - -
08/09:30am - - - - - ENE 20 32 11 17 - - -
08/09:00am - - - - - W 13 17 7 9 - - -
08/08:30am - - - - - W 28 33 15 18 - - -
08/08:00am - - - - - WSW 24 30 13 16 - - -
08/07:30am - - - - - WSW 15 17 8 9 - - -
08/07:00am - - - - - WNW 20 26 11 14 - - -
08/06:30am - - - - - NW 11 17 6 9 - - -
08/06:00am - - - - - NNW 2 7 1 4 - - -
08/05:30am - - - - - E 7 11 4 6 - - -
08/05:00am - - - - - ENE 11 19 6 10 - - -
08/04:30am - - - - - ENE 9 15 5 8 - - -
08/04:00am - - - - - NE 4 11 2 6 - - -
08/03:30am - - - - - ENE 11 15 6 8 - - -
08/03:00am - - - - - E 11 15 6 8 - - -
08/02:30am - - - - - ENE 6 9 3 5 - - -
08/02:00am - - - - - ENE 7 9 4 5 - - -
08/01:30am - - - - - ENE 7 11 4 6 - - -
08/01:00am - - - - - E 9 13 5 7 - - -
08/12:30am - - - - - E 11 15 6 8 - - -
08/12:00am - - - - - NE 9 13 5 7 - - -
 
Date/Time
EDT
Temp
°C
App
Temp
°C
Dew
Point
°C
Rel
Hum
%
Delta-T
°C
Wind Press
QNH
hPa
Press
MSL
hPa
Rain since
9am
mm
Dir  Spd
km/h
Gust
km/h
Spd
kts
Gust
kts
07/11:30pm - - - - - ENE 9 13 5 7 - - -
07/11:00pm - - - - - E 15 17 8 9 - - -
07/10:30pm - - - - - E 17 19 9 10 - - -
07/10:00pm - - - - - ENE 11 15 6 8 - - -
07/09:30pm - - - - - E 13 15 7 8 - - -
07/09:00pm - - - - - E 17 20 9 11 - - -
07/08:30pm - - - - - E 15 17 8 9 - - -
07/08:00pm - - - - - E 17 19 9 10 - - -
07/07:30pm - - - - - E 17 19 9 10 - - -
07/07:00pm - - - - - E 17 20 9 11 - - -
07/06:30pm - - - - - E 19 20 10 11 - - -
07/06:00pm - - - - - E 19 20 10 11 - - -
07/05:30pm - - - - - E 20 22 11 12 - - -
07/05:00pm - - - - - E 20 22 11 12 - - -
07/04:30pm - - - - - E 20 24 11 13 - - -
07/04:00pm - - - - - E 20 24 11 13 - - -
07/03:30pm - - - - - E 20 24 11 13 - - -
07/03:00pm - - - - - ENE 19 24 10 13 - - -
07/02:30pm - - - - - SSW 11 13 6 7 - - -
07/02:00pm - - - - - SSW 15 17 8 9 - - -
07/01:30pm - - - - - SSW 13 15 7 8 - - -
07/01:00pm - - - - - SW 11 11 6 6 - - -
07/12:30pm - - - - - SW 13 15 7 8 - - -
07/12:00pm - - - - - SSW 15 17 8 9 - - -
07/11:30am - - - - - SSW 15 17 8 9 - - -
07/11:00am - - - - - WSW 13 13 7 7 - - -
07/10:30am - - - - - SW 11 13 6 7 - - -
07/10:00am - - - - - SW 11 13 6 7 - - -
07/09:30am - - - - - SW 13 19 7 10 - - -
07/09:00am - - - - - SW 13 15 7 8 - - -
07/08:30am - - - - - WSW 13 15 7 8 - - -
07/08:00am - - - - - WSW 11 15 6 8 - - -
07/07:30am - - - - - SW 13 17 7 9 - - -
07/07:00am - - - - - WSW 13 15 7 8 - - -
07/06:30am - - - - - W 11 15 6 8 - - -
07/06:00am - - - - - WSW 9 13 5 7 - - -
07/05:30am - - - - - SW 11 15 6 8 - - -
07/05:00am - - - - - W 13 19 7 10 - - -
07/04:30am - - - - - WNW 20 26 11 14 - - -
07/04:00am - - - - - NW 17 26 9 14 - - -
07/03:30am - - - - - NW 13 17 7 9 - - -
07/03:00am - - - - - NNW 17 22 9 12 - - -
07/02:30am - - - - - NNW 19 24 10 13 - - -
07/02:00am - - - - - NNW 19 24 10 13 - - -
07/01:30am - - - - - NW 17 24 9 13 - - -
07/01:00am - - - - - NW 6 17 3 9 - - -
07/12:30am - - - - - CALM 0 0 0 0 - - -
07/12:00am - - - - - CALM 0 0 0 0 - - -
 
Date/Time
EDT
Temp
°C
App
Temp
°C
Dew
Point
°C
Rel
Hum
%
Delta-T
°C
Wind Press
QNH
hPa
Press
MSL
hPa
Rain since
9am
mm
Dir  Spd
km/h
Gust
km/h
Spd
kts
Gust
kts
06/11:30pm - - - - - CALM 0 0 0 0 - - -
06/11:00pm - - - - - CALM 0 0 0 0 - - -
06/10:30pm - - - - - CALM 0 0 0 0 - - -
06/10:00pm - - - - - CALM 0 0 0 0 - - -
06/09:30pm - - - - - CALM 0 4 0 2 - - -
06/09:00pm - - - - - CALM 0 0 0 0 - - -
06/08:30pm - - - - - WSW 4 7 2 4 - - -
06/08:00pm - - - - - WSW 7 9 4 5 - - -
06/07:30pm - - - - - CALM 0 4 0 2 - - -
06/07:00pm - - - - - WSW 9 11 5 6 - - -
06/06:30pm - - - - - WSW 7 9 4 5 - - -
06/06:00pm - - - - - WSW 7 9 4 5 - - -
06/05:30pm - - - - - WSW 9 11 5 6 - - -
06/05:00pm - - - - - SW 11 13 6 7 - - -
06/04:30pm - - - - - WSW 11 13 6 7 - - -
06/04:00pm - - - - - WSW 13 15 7 8 - - -
06/03:30pm - - - - - WSW 13 17 7 9 - - -
06/03:00pm - - - - - W 13 17 7 9 - - -
06/02:30pm - - - - - W 17 19 9 10 - - -
06/02:00pm - - - - - W 17 20 9 11 - - -
06/01:30pm - - - - - W 17 19 9 10 - - -
06/01:00pm - - - - - W 17 19 9 10 - - -
06/12:30pm - - - - - W 7 13 4 7 - - -
06/12:00pm - - - - - WSW 9 11 5 6 - - -
06/11:30am - - - - - W 15 17 8 9 - - -
06/11:00am - - - - - WSW 7 9 4 5 - - -
06/10:30am - - - - - CALM 0 0 0 0 - - -

Other formats

Comma delimited format used in spreadsheet applications
http://www.bom.gov.au/fwo/IDN60801/IDN60801.95995.axf

JavaScript Object Notation format (JSON) in row-major order
http://www.bom.gov.au/fwo/IDN60801/IDN60801.95995.json

Data quality

Most of these data are generated automatically and are frequently updated. Quality checks on data are not normally performed. It is possible for incorrect values to appear. Refer to information at About Latest Weather Observations and please check the disclaimer before using these data.